Time;durP1;ratioP1;P1;durP2;ratioP2;P2;SDS_P1;SDS_P2;PMS_P1;PMS_P2;Temp;Humidity;BMP_temperature;BMP_pressure;BME280_temperature;BME280_humidity;BME280_pressure;Samples;Min_cycle;Max_cycle;Signal;HPM_P1;HPM_P2
2023/06/19 05:03:40;;;;;;;3.67;2.10;;;23.10;78.50;;;;;;5006059;23;20191;-73
2023/06/19 05:06:08;;;;;;;3.50;2.20;;;23.10;78.00;;;;;;4974561;28;20189;-73
2023/06/19 05:08:34;;;;;;;3.80;2.35;;;23.20;77.90;;;;;;4977858;28;20023;-75
2023/06/19 05:11:00;;;;;;;3.20;2.25;;;23.20;78.10;;;;;;4980502;28;20069;-72
2023/06/19 05:13:26;;;;;;;3.95;2.25;;;23.20;78.10;;;;;;4985948;28;20038;-74
2023/06/19 05:15:51;;;;;;;4.68;2.47;;;23.30;77.80;;;;;;4984802;28;20336;-72
2023/06/19 05:18:17;;;;;;;3.90;2.58;;;23.30;78.00;;;;;;4985207;28;20026;-71
2023/06/19 05:20:43;;;;;;;5.30;2.33;;;23.30;77.80;;;;;;4977768;28;20376;-73
2023/06/19 05:23:09;;;;;;;3.60;2.40;;;23.30;77.90;;;;;;4966858;28;20038;-74
2023/06/19 05:25:35;;;;;;;3.97;2.30;;;23.40;78.30;;;;;;4966366;28;20035;-73
2023/06/19 05:28:01;;;;;;;4.03;2.10;;;23.60;77.40;;;;;;4966739;29;20023;-73
2023/06/19 05:30:26;;;;;;;4.30;2.70;;;23.40;77.90;;;;;;4966176;28;20316;-71
2023/06/19 05:32:52;;;;;;;3.78;2.08;;;23.40;78.00;;;;;;4966385;29;20038;-72
2023/06/19 05:35:18;;;;;;;3.85;2.30;;;23.60;77.70;;;;;;4970405;28;20031;-73
2023/06/19 05:37:44;;;;;;;4.53;2.30;;;23.50;78.30;;;;;;4985154;28;20220;-72
2023/06/19 05:40:10;;;;;;;2.90;2.00;;;23.50;78.00;;;;;;4985606;28;20026;-73
2023/06/19 05:42:36;;;;;;;2.95;1.80;;;23.60;78.30;;;;;;4985370;28;20050;-73
2023/06/19 05:45:05;;;;;;;3.83;2.10;;;23.30;78.90;;;;;;4985815;28;20023;-74
2023/06/19 05:47:31;;;;;;;2.70;1.83;;;23.50;78.40;;;;;;4984766;28;20034;-70
2023/06/19 05:49:58;;;;;;;4.47;2.13;;;23.60;78.40;;;;;;4985602;28;20030;-70
2023/06/19 05:52:24;;;;;;;3.80;2.00;;;23.60;78.20;;;;;;4985022;28;20355;-71
2023/06/19 05:54:50;;;;;;;3.17;1.75;;;23.60;78.50;;;;;;4985764;28;20022;-73
2023/06/19 05:57:18;;;;;;;3.25;1.98;;;23.80;78.00;;;;;;4977304;28;20098;-72
2023/06/19 05:59:44;;;;;;;4.20;2.53;;;23.80;77.70;;;;;;4965782;29;20368;-72
2023/06/19 06:02:10;;;;;;;3.28;2.33;;;23.90;77.80;;;;;;4965021;28;20043;-71
2023/06/19 06:04:36;;;;;;;3.33;2.25;;;23.90;77.80;;;;;;4965484;28;20094;-70
2023/06/19 06:07:02;;;;;;;3.03;1.95;;;24.20;77.30;;;;;;4965799;28;20046;-71
2023/06/19 06:09:27;;;;;;;3.30;2.40;;;24.10;77.10;;;;;;4965171;28;20031;-71
2023/06/19 06:11:53;;;;;;;2.72;2.03;;;24.10;77.40;;;;;;4965496;28;20019;-71
2023/06/19 06:14:19;;;;;;;4.38;2.25;;;24.20;77.20;;;;;;4965559;28;20039;-73
2023/06/19 06:16:44;;;;;;;4.78;2.45;;;24.20;77.20;;;;;;4965574;29;20315;-71
2023/06/19 06:19:10;;;;;;;3.67;2.28;;;24.20;77.30;;;;;;4965499;28;20027;-72
2023/06/19 06:21:36;;;;;;;3.38;2.17;;;24.40;77.30;;;;;;4965106;28;20031;-72
2023/06/19 06:24:02;;;;;;;3.60;2.38;;;24.60;76.70;;;;;;4965336;28;20232;-71
2023/06/19 06:26:28;;;;;;;4.57;2.50;;;24.70;75.90;;;;;;4980358;28;20086;-72
2023/06/19 06:28:55;;;;;;;3.55;2.28;;;24.90;75.90;;;;;;4965382;28;20101;-72
2023/06/19 06:31:22;;;;;;;3.40;2.38;;;24.80;75.80;;;;;;4965498;28;20022;-71
2023/06/19 06:33:48;;;;;;;3.10;2.00;;;24.90;75.60;;;;;;4964078;29;20309;-72
2023/06/19 06:36:17;;;;;;;3.13;2.15;;;25.00;74.50;;;;;;4965601;28;20034;-74
2023/06/19 06:38:45;;;;;;;2.72;1.92;;;25.30;75.00;;;;;;4963569;29;20145;-72
2023/06/19 06:41:10;;;;;;;3.17;1.88;;;25.30;74.00;;;;;;4965028;28;20027;-73
2023/06/19 06:43:36;;;;;;;3.78;2.00;;;25.30;74.00;;;;;;4964487;28;20031;-72
2023/06/19 06:46:02;;;;;;;2.90;1.77;;;25.70;73.30;;;;;;4965238;28;20038;-72
2023/06/19 06:48:27;;;;;;;2.95;1.58;;;25.70;71.80;;;;;;4964889;28;20031;-72
2023/06/19 06:50:59;;;;;;;3.55;1.80;;;25.80;72.20;;;;;;4964780;28;20324;-71
2023/06/19 06:53:25;;;;;;;3.22;1.50;;;26.00;71.50;;;;;;4964601;28;20035;-74
2023/06/19 06:55:52;;;;;;;2.20;1.33;;;25.90;71.00;;;;;;4964009;29;20031;-73
2023/06/19 06:58:18;;;;;;;2.05;1.40;;;26.20;71.10;;;;;;4964736;28;20023;-72
2023/06/19 07:00:44;;;;;;;1.90;1.30;;;26.20;70.50;;;;;;4964318;28;20031;-73
2023/06/19 07:03:10;;;;;;;2.42;1.60;;;26.20;70.30;;;;;;4963307;28;20043;-72
2023/06/19 07:05:36;;;;;;;3.30;1.30;;;26.20;70.30;;;;;;4964340;29;20019;-73
2023/06/19 07:08:03;;;;;;;3.08;1.60;;;26.20;70.00;;;;;;4964752;29;20099;-73
2023/06/19 07:10:29;;;;;;;3.45;1.70;;;25.70;71.90;;;;;;4964361;29;20249;-71
2023/06/19 07:12:55;;;;;;;3.55;1.80;;;25.70;71.70;;;;;;4965076;29;20062;-71
2023/06/19 07:15:21;;;;;;;2.75;1.50;;;25.70;71.90;;;;;;4964471;29;20035;-71
2023/06/19 07:17:47;;;;;;;2.15;1.45;;;25.70;72.00;;;;;;4964267;28;20035;-72
2023/06/19 07:20:13;;;;;;;2.50;1.50;;;25.80;71.90;;;;;;4964347;29;20023;-72
2023/06/19 07:22:40;;;;;;;2.33;1.30;;;25.80;71.10;;;;;;4964256;29;20035;-70
2023/06/19 07:25:06;;;;;;;2.75;1.30;;;25.90;70.40;;;;;;4964420;28;20030;-71
2023/06/19 07:27:32;;;;;;;2.15;1.30;;;25.90;70.30;;;;;;4963091;29;20220;-71
2023/06/19 07:29:58;;;;;;;2.38;1.10;;;25.90;70.70;;;;;;4964761;28;20027;-71
2023/06/19 07:32:24;;;;;;;3.03;1.20;;;26.00;69.90;;;;;;4964383;28;20070;-70
2023/06/19 07:34:49;;;;;;;2.00;1.30;;;26.00;70.00;;;;;;4963922;28;20057;-70
2023/06/19 07:37:17;;;;;;;4.15;1.38;;;26.10;70.40;;;;;;4964750;29;20023;-71
2023/06/19 07:39:50;;;;;;;2.60;1.40;;;25.90;69.80;;;;;;4963758;29;20054;-72
2023/06/19 07:42:18;;;;;;;4.70;1.50;;;26.10;70.00;;;;;;4961570;28;20220;-72
2023/06/19 07:44:44;;;;;;;2.45;1.38;;;26.30;69.90;;;;;;4967622;28;20046;-71
2023/06/19 07:47:10;;;;;;;3.10;1.48;;;26.70;68.80;;;;;;4968019;28;20054;-72
2023/06/19 07:49:36;;;;;;;2.33;1.30;;;26.90;69.40;;;;;;4966523;29;20047;-71
2023/06/19 07:52:03;;;;;;;3.63;1.42;;;27.00;68.20;;;;;;4967911;28;20432;-73
2023/06/19 07:54:29;;;;;;;2.58;1.50;;;27.30;68.00;;;;;;4967452;28;20368;-71
2023/06/19 07:56:55;;;;;;;2.45;1.45;;;27.50;67.30;;;;;;4961450;28;20035;-72
2023/06/19 07:59:22;;;;;;;1.73;1.13;;;27.40;68.10;;;;;;4949002;29;20043;-72
2023/06/19 08:01:48;;;;;;;2.42;1.20;;;27.40;67.30;;;;;;4950780;29;20093;-73
2023/06/19 08:04:14;;;;;;;3.10;1.60;;;27.30;68.70;;;;;;4966770;28;20102;-72
2023/06/19 08:06:40;;;;;;;3.10;1.60;;;27.20;68.40;;;;;;4967303;28;20049;-72
2023/06/19 08:09:05;;;;;;;2.60;1.55;;;27.40;68.20;;;;;;4967855;28;20035;-73
2023/06/19 08:11:31;;;;;;;2.92;1.60;;;27.30;68.30;;;;;;4966546;28;20059;-72
2023/06/19 08:13:57;;;;;;;2.47;1.20;;;27.40;68.60;;;;;;4962793;29;20361;-74
2023/06/19 08:16:25;;;;;;;3.03;1.65;;;27.40;69.40;;;;;;4967944;28;20301;-71
2023/06/19 08:18:51;;;;;;;2.72;1.40;;;27.60;69.50;;;;;;4967476;28;20046;-71
2023/06/19 08:21:17;;;;;;;3.17;1.65;;;27.60;68.50;;;;;;4967600;28;20309;-71
2023/06/19 08:23:43;;;;;;;3.00;1.42;;;27.40;69.10;;;;;;4967307;28;20028;-71
2023/06/19 08:26:10;;;;;;;4.35;1.60;;;27.20;70.60;;;;;;4967674;28;20035;-72
2023/06/19 08:28:37;;;;;;;2.20;1.10;;;27.20;70.40;;;;;;4957617;28;20095;-73
2023/06/19 08:31:02;;;;;;;3.30;1.70;;;27.10;69.60;;;;;;4948641;29;20035;-71
2023/06/19 08:33:28;;;;;;;2.95;1.60;;;27.10;70.60;;;;;;4948165;29;20380;-72
2023/06/19 08:35:54;;;;;;;2.50;1.60;;;27.10;70.90;;;;;;4947837;29;20031;-71
2023/06/19 08:38:19;;;;;;;2.80;1.40;;;27.10;70.70;;;;;;4947946;29;20098;-72
2023/06/19 08:40:45;;;;;;;4.25;1.85;;;27.10;71.80;;;;;;4947826;29;20359;-73
2023/06/19 08:43:11;;;;;;;3.35;1.63;;;27.20;71.60;;;;;;4947906;29;20107;-71
2023/06/19 08:45:37;;;;;;;3.20;1.70;;;26.90;71.80;;;;;;4965960;29;20026;-71
2023/06/19 08:48:04;;;;;;;3.88;1.90;;;26.80;72.90;;;;;;4967426;28;20041;-72
2023/06/19 08:50:36;;;;;;;3.38;1.70;;;26.90;72.20;;;;;;4965729;29;20035;-71
2023/06/19 08:53:01;;;;;;;4.25;2.10;;;26.90;72.40;;;;;;4965838;28;20314;-72
2023/06/19 08:55:27;;;;;;;3.15;1.70;;;26.70;73.50;;;;;;4967412;28;20070;-72
2023/06/19 08:57:53;;;;;;;2.45;1.65;;;26.80;73.80;;;;;;4965348;29;20297;-72
2023/06/19 09:00:27;;;;;;;2.58;1.50;;;26.80;73.40;;;;;;4954568;28;20309;-72
2023/06/19 09:03:00;;;;;;;3.88;2.10;;;27.00;72.00;;;;;;4958148;29;20061;-72
2023/06/19 09:05:26;;;;;;;2.88;1.60;;;26.90;73.00;;;;;;4967192;28;20069;-70
2023/06/19 09:07:57;;;;;;;2.22;1.38;;;27.00;72.90;;;;;;4966388;28;20536;-71
2023/06/19 09:10:24;;;;;;;4.28;2.13;;;27.10;73.60;;;;;;4966276;28;20093;-72
2023/06/19 09:13:16;;;;;;;6.13;2.05;;;27.30;73.90;;;;;;4966298;28;20035;-71
2023/06/19 09:15:42;;;;;;;2.30;1.52;;;27.40;74.80;;;;;;4951632;28;20044;-72
2023/06/19 09:18:09;;;;;;;5.68;1.75;;;27.50;74.00;;;;;;4946134;29;20027;-73
2023/06/19 09:20:40;;;;;;;3.08;2.03;;;27.70;74.20;;;;;;4946740;29;20040;-73
2023/06/19 09:23:06;;;;;;;5.20;2.03;;;27.80;76.00;;;;;;4953265;29;20035;-74
2023/06/19 09:25:32;;;;;;;3.13;1.77;;;28.00;77.10;;;;;;4965975;28;20107;-72
2023/06/19 09:27:57;;;;;;;2.38;1.58;;;28.20;77.90;;;;;;4965527;28;20026;-73
2023/06/19 09:30:23;;;;;;;2.72;1.60;;;28.50;77.90;;;;;;4964015;28;20019;-74
2023/06/19 09:32:49;;;;;;;3.40;1.73;;;28.50;78.40;;;;;;4964399;29;20035;-74
2023/06/19 09:35:15;;;;;;;3.40;1.85;;;28.80;79.10;;;;;;4965907;28;20023;-72
2023/06/19 09:37:41;;;;;;;2.58;1.55;;;28.80;79.00;;;;;;4965677;28;20031;-73
2023/06/19 09:40:10;;;;;;;3.22;1.98;;;28.90;79.70;;;;;;4965974;28;20321;-73
2023/06/19 09:42:43;;;;;;;2.50;1.70;;;29.30;79.70;;;;;;4965550;28;20249;-75
2023/06/19 09:45:21;;;;;;;3.22;1.90;;;29.40;79.20;;;;;;4997214;28;20027;-71
2023/06/19 09:47:48;;;;;;;4.45;1.83;;;29.60;78.60;;;;;;4961291;29;20333;-72
2023/06/19 09:50:15;;;;;;;3.00;1.80;;;29.60;79.70;;;;;;4965658;28;20039;-72
2023/06/19 09:52:43;;;;;;;2.83;1.83;;;29.80;79.30;;;;;;4964091;29;20047;-74
2023/06/19 09:55:12;;;;;;;4.03;1.83;;;30.00;79.60;;;;;;4964620;29;20019;-72
2023/06/19 09:57:39;;;;;;;3.08;1.90;;;30.00;78.90;;;;;;4964084;29;20038;-71
2023/06/19 10:00:11;;;;;;;3.42;2.10;;;29.80;78.60;;;;;;4965824;28;20038;-75
2023/06/19 10:02:46;;;;;;;5.60;2.13;;;30.10;78.30;;;;;;4954723;28;20039;-76
2023/06/19 10:05:13;;;;;;;5.75;2.05;;;30.10;78.80;;;;;;4956474;29;20078;-74
2023/06/19 10:07:43;;;;;;;3.72;2.10;;;30.20;79.00;;;;;;4965222;28;20031;-73
2023/06/19 10:10:27;;;;;;;8.15;2.40;;;30.60;77.50;;;;;;4965444;28;20106;-74
2023/06/19 10:12:58;;;;;;;2.60;1.73;;;30.50;77.60;;;;;;4965123;28;20029;-74
2023/06/19 10:15:29;;;;;;;3.33;2.00;;;30.40;77.20;;;;;;4965700;28;20198;-74
2023/06/19 10:18:05;;;;;;;3.33;1.75;;;30.30;77.60;;;;;;4959332;28;20032;-73
2023/06/19 10:20:40;;;;;;;7.00;2.60;;;30.10;77.70;;;;;;4958610;29;20035;-75
2023/06/19 10:23:18;;;;;;;4.25;2.15;;;30.20;77.30;;;;;;4960713;29;20089;-75
2023/06/19 10:25:55;;;;;;;5.18;2.25;;;30.30;77.10;;;;;;4961101;29;20257;-73
2023/06/19 10:28:24;;;;;;;4.15;2.38;;;30.60;76.80;;;;;;4964660;28;20041;-73
2023/06/19 10:30:53;;;;;;;2.90;2.20;;;30.70;76.90;;;;;;4964410;28;20042;-73
2023/06/19 10:33:19;;;;;;;2.88;1.92;;;30.80;76.40;;;;;;4959704;28;20332;-74
2023/06/19 10:35:44;;;;;;;3.53;2.38;;;31.00;76.30;;;;;;4963516;29;20019;-72
2023/06/19 10:38:10;;;;;;;3.05;2.30;;;31.40;76.60;;;;;;4965503;28;20070;-73
2023/06/19 10:40:37;;;;;;;4.72;2.40;;;31.40;75.90;;;;;;4965153;28;20069;-72
2023/06/19 10:43:04;;;;;;;3.92;2.17;;;31.20;75.70;;;;;;4964086;28;20039;-70
2023/06/19 10:45:29;;;;;;;4.78;2.50;;;31.60;75.40;;;;;;4966473;28;20054;-72
2023/06/19 10:47:55;;;;;;;4.85;2.47;;;31.70;75.30;;;;;;4964317;28;20220;-71
2023/06/19 10:50:22;;;;;;;3.42;2.38;;;31.80;75.50;;;;;;4960422;28;20035;-74
2023/06/19 10:52:48;;;;;;;5.15;2.92;;;32.20;75.20;;;;;;4964521;28;20324;-75
2023/06/19 10:55:15;;;;;;;3.28;2.25;;;32.20;75.30;;;;;;4965467;28;20336;-74
2023/06/19 10:57:44;;;;;;;4.63;2.30;;;32.50;74.40;;;;;;4964581;28;20102;-72
2023/06/19 11:00:14;;;;;;;4.97;2.53;;;32.60;74.10;;;;;;4964808;29;20216;-71
2023/06/19 11:02:43;;;;;;;3.60;2.28;;;32.70;74.20;;;;;;4963162;28;20238;-73
2023/06/19 11:05:11;;;;;;;7.00;2.33;;;32.40;74.20;;;;;;4958918;28;20030;-70
2023/06/19 11:07:37;;;;;;;8.77;2.65;;;32.10;75.00;;;;;;4964888;28;20038;-72
2023/06/19 11:10:04;;;;;;;2.72;2.20;;;32.30;74.30;;;;;;4964052;28;20034;-72
2023/06/19 11:12:32;;;;;;;3.67;2.05;;;32.60;73.60;;;;;;4964919;28;20043;-73
2023/06/19 11:14:58;;;;;;;2.60;1.95;;;32.30;73.50;;;;;;4963960;28;20309;-74
2023/06/19 11:17:24;;;;;;;4.22;2.17;;;32.10;74.60;;;;;;4962608;28;20023;-73
2023/06/19 11:19:50;;;;;;;3.10;2.15;;;32.20;74.40;;;;;;4962594;28;20633;-73
2023/06/19 11:22:16;;;;;;;4.00;2.25;;;32.10;74.70;;;;;;4963396;28;20031;-75
2023/06/19 11:24:48;;;;;;;5.05;2.40;;;32.20;75.00;;;;;;4963985;28;20294;-75
2023/06/19 11:27:27;;;;;;;5.03;2.28;;;32.30;73.90;;;;;;4947420;28;20075;-74
2023/06/19 11:29:59;;;;;;;3.40;2.00;;;32.40;73.70;;;;;;4963631;29;20039;-74
2023/06/19 11:32:31;;;;;;;3.90;2.40;;;32.80;73.50;;;;;;4964078;28;20035;-75
2023/06/19 11:34:57;;;;;;;3.45;2.10;;;32.90;72.80;;;;;;4963368;28;20035;-74
2023/06/19 11:37:23;;;;;;;3.17;2.25;;;33.00;73.40;;;;;;4963951;28;20305;-73
2023/06/19 11:39:53;;;;;;;4.30;2.00;;;33.90;71.30;;;;;;4962747;28;20055;-72
2023/06/19 11:42:19;;;;;;;3.60;2.13;;;34.30;71.30;;;;;;4962654;29;20094;-73
2023/06/19 11:45:02;;;;;;;4.07;2.00;;;35.10;71.00;;;;;;4963570;28;20082;-73
2023/06/19 11:47:30;;;;;;;4.60;2.15;;;35.80;69.60;;;;;;4995254;28;20031;-73
2023/06/19 11:49:56;;;;;;;2.60;2.00;;;36.20;68.20;;;;;;4963403;28;20039;-73
2023/06/19 11:52:22;;;;;;;4.68;2.20;;;36.80;68.00;;;;;;4956175;29;20490;-73
2023/06/19 11:54:48;;;;;;;5.80;2.10;;;37.70;65.60;;;;;;4962266;29;20305;-71
2023/06/19 11:57:13;;;;;;;3.38;2.05;;;38.50;64.60;;;;;;4961687;29;20027;-73
2023/06/19 11:59:40;;;;;;;3.75;2.15;;;38.80;62.80;;;;;;4963053;29;20047;-74
2023/06/19 12:02:06;;;;;;;5.53;2.00;;;39.00;63.00;;;;;;4963497;28;20106;-74
2023/06/19 12:04:32;;;;;;;2.92;2.15;;;38.00;63.70;;;;;;4964435;28;20051;-72
2023/06/19 12:06:58;;;;;;;3.63;1.98;;;36.80;64.50;;;;;;4963503;28;20043;-72
2023/06/19 12:09:24;;;;;;;4.10;2.00;;;36.30;64.80;;;;;;4963632;28;20213;-72
2023/06/19 12:11:50;;;;;;;4.63;2.15;;;36.00;65.30;;;;;;4963331;28;20042;-73
2023/06/19 12:14:16;;;;;;;4.63;2.40;;;36.30;65.70;;;;;;4964261;28;20031;-74
2023/06/19 12:16:41;;;;;;;4.90;2.03;;;35.70;66.30;;;;;;4963312;28;20305;-73
2023/06/19 12:19:07;;;;;;;3.05;2.05;;;35.60;66.30;;;;;;4964218;28;20039;-74
2023/06/19 12:21:33;;;;;;;3.72;2.10;;;35.50;66.90;;;;;;4963961;28;20057;-75
2023/06/19 12:23:59;;;;;;;4.28;2.25;;;36.00;66.60;;;;;;4962584;29;20027;-73
2023/06/19 12:26:25;;;;;;;4.15;2.50;;;36.50;65.70;;;;;;4963036;29;20034;-73
2023/06/19 12:28:51;;;;;;;4.22;2.40;;;36.20;65.90;;;;;;4965615;28;20139;-73
2023/06/19 12:31:18;;;;;;;4.53;2.30;;;35.90;66.20;;;;;;4967949;28;20035;-74
2023/06/19 12:33:44;;;;;;;4.30;1.95;;;35.30;66.80;;;;;;4967263;28;20043;-75
2023/06/19 12:36:13;;;;;;;3.13;1.90;;;35.40;66.80;;;;;;4967422;28;20408;-74
2023/06/19 12:38:40;;;;;;;4.05;2.30;;;35.70;66.70;;;;;;4967562;28;20102;-73
2023/06/19 12:41:06;;;;;;;5.70;2.38;;;36.60;65.50;;;;;;4967516;28;20043;-72
2023/06/19 12:43:32;;;;;;;3.05;2.05;;;38.00;64.00;;;;;;4967075;28;20074;-74
2023/06/19 12:45:59;;;;;;;3.70;2.35;;;39.40;62.20;;;;;;4967332;28;20038;-73
2023/06/19 12:48:26;;;;;;;3.05;1.83;;;40.50;61.30;;;;;;4967684;28;20086;-74
2023/06/19 12:50:51;;;;;;;5.82;2.20;;;42.20;60.00;;;;;;4966669;28;20035;-73
2023/06/19 12:53:17;;;;;;;8.05;2.60;;;43.70;54.70;;;;;;4967119;28;20042;-74
2023/06/19 12:55:43;;;;;;;2.85;1.92;;;44.90;54.60;;;;;;4966924;29;20031;-73
2023/06/19 12:58:09;;;;;;;5.32;2.10;;;45.70;52.40;;;;;;4966966;28;20039;-77
2023/06/19 13:00:35;;;;;;;3.40;1.80;;;44.40;53.30;;;;;;4967076;28;20039;-74
2023/06/19 13:03:00;;;;;;;5.10;2.38;;;44.00;54.70;;;;;;4965129;28;20051;-74
2023/06/19 13:05:26;;;;;;;5.18;3.00;;;42.70;54.90;;;;;;4966660;28;20035;-75
2023/06/19 13:07:52;;;;;;;6.22;5.25;;;40.80;55.80;;;;;;4966307;28;20043;-74
2023/06/19 13:10:17;;;;;;;4.93;2.35;;;39.70;57.60;;;;;;4966830;28;20031;-73
2023/06/19 13:12:43;;;;;;;3.08;2.17;;;38.50;59.20;;;;;;4965936;28;20059;-73
2023/06/19 13:15:09;;;;;;;3.53;2.42;;;37.70;59.20;;;;;;4966651;28;20209;-74
2023/06/19 13:17:35;;;;;;;3.00;1.90;;;37.90;59.40;;;;;;4967131;28;20031;-72
2023/06/19 13:20:01;;;;;;;4.95;2.20;;;38.00;59.30;;;;;;4966266;28;20039;-75
2023/06/19 13:22:27;;;;;;;2.42;1.83;;;38.60;59.70;;;;;;4967021;28;20046;-74
2023/06/19 13:24:53;;;;;;;7.78;3.50;;;39.20;57.30;;;;;;4949217;29;20031;-74
2023/06/19 13:27:21;;;;;;;3.08;1.85;;;40.20;57.30;;;;;;4966774;29;20085;-74
2023/06/19 13:29:47;;;;;;;5.28;2.55;;;42.00;56.50;;;;;;4966507;28;20035;-75
2023/06/19 13:32:15;;;;;;;3.63;2.25;;;43.50;55.20;;;;;;4966702;28;20282;-73
2023/06/19 13:34:42;;;;;;;3.45;1.80;;;44.60;53.60;;;;;;4965950;28;20031;-75
2023/06/19 13:37:09;;;;;;;4.20;1.70;;;44.50;54.80;;;;;;4966135;28;20217;-73
2023/06/19 13:39:35;;;;;;;4.60;1.80;;;44.50;55.30;;;;;;4965769;28;20102;-73
2023/06/19 13:42:03;;;;;;;5.22;1.83;;;44.50;54.80;;;;;;4966024;29;20288;-74
2023/06/19 13:44:29;;;;;;;3.03;1.88;;;44.90;54.80;;;;;;4966074;28;20078;-75
2023/06/19 13:46:55;;;;;;;3.10;1.70;;;44.60;54.00;;;;;;4965665;28;20101;-73
2023/06/19 13:49:21;;;;;;;2.55;1.70;;;42.90;54.60;;;;;;4966258;28;20042;-73
2023/06/19 13:51:47;;;;;;;3.72;1.75;;;43.30;55.60;;;;;;4965862;28;20039;-73
2023/06/19 13:54:15;;;;;;;3.88;1.95;;;43.90;54.80;;;;;;4966308;28;20046;-74
2023/06/19 13:56:42;;;;;;;4.20;1.85;;;43.90;54.30;;;;;;4965797;28;20038;-74
2023/06/19 13:59:08;;;;;;;2.65;2.00;;;44.00;54.50;;;;;;4966085;28;20261;-74
2023/06/19 14:01:34;;;;;;;3.80;1.90;;;43.50;54.90;;;;;;4965723;28;20035;-73
2023/06/19 14:03:59;;;;;;;5.88;2.05;;;44.00;55.10;;;;;;4964409;29;20099;-74
2023/06/19 14:06:25;;;;;;;4.13;1.83;;;43.80;54.90;;;;;;4966005;28;20287;-74
2023/06/19 14:08:51;;;;;;;2.97;1.80;;;41.60;55.20;;;;;;4965446;28;20360;-76
2023/06/19 14:11:18;;;;;;;2.55;1.65;;;40.30;57.60;;;;;;4965958;28;20030;-74
2023/06/19 14:13:44;;;;;;;3.13;1.85;;;40.40;56.80;;;;;;4965487;28;20061;-75
2023/06/19 14:16:09;;;;;;;2.95;1.88;;;41.00;57.40;;;;;;4965895;28;20332;-75
2023/06/19 14:18:37;;;;;;;4.28;2.13;;;40.30;56.60;;;;;;4955501;28;20059;-74
2023/06/19 14:21:03;;;;;;;2.58;1.55;;;41.10;57.30;;;;;;4945665;29;20316;-74
2023/06/19 14:23:28;;;;;;;2.53;1.33;;;41.00;56.60;;;;;;4946755;29;20031;-74
2023/06/19 14:25:54;;;;;;;4.60;2.47;;;41.30;56.90;;;;;;4944854;29;20035;-75
2023/06/19 14:28:20;;;;;;;4.05;1.98;;;43.00;55.70;;;;;;4946098;29;20024;-74
2023/06/19 14:30:46;;;;;;;2.42;1.48;;;43.90;54.80;;;;;;4945735;29;20096;-73
2023/06/19 14:33:15;;;;;;;7.15;2.10;;;44.20;55.00;;;;;;4946449;29;20221;-74
2023/06/19 14:35:46;;;;;;;2.17;1.65;;;45.30;54.00;;;;;;4946508;29;20027;-73
2023/06/19 14:38:15;;;;;;;2.45;1.67;;;45.70;53.50;;;;;;4945966;29;20032;-73
2023/06/19 14:40:44;;;;;;;5.80;4.63;;;45.60;54.30;;;;;;4945585;29;20310;-73
2023/06/19 14:43:10;;;;;;;2.40;1.75;;;45.30;54.40;;;;;;4945857;29;20328;-74
2023/06/19 14:45:36;;;;;;;4.30;2.10;;;45.10;54.60;;;;;;4946245;29;20043;-74
2023/06/19 14:48:02;;;;;;;2.65;1.70;;;44.70;55.20;;;;;;4945610;29;20055;-73
2023/06/19 14:50:28;;;;;;;2.03;1.63;;;44.40;55.20;;;;;;4945995;29;20028;-74
2023/06/19 14:52:53;;;;;;;3.70;1.90;;;44.00;55.70;;;;;;4945171;29;20032;-74
2023/06/19 14:55:19;;;;;;;2.80;1.75;;;44.20;56.00;;;;;;4945832;29;20023;-74
2023/06/19 14:57:45;;;;;;;3.42;1.85;;;44.20;55.70;;;;;;4945450;29;20238;-73
2023/06/19 15:00:11;;;;;;;2.50;2.05;;;43.80;56.20;;;;;;4945573;29;20034;-74
2023/06/19 15:02:37;;;;;;;3.60;2.22;;;42.70;56.90;;;;;;4945296;29;20047;-73
2023/06/19 15:05:03;;;;;;;4.45;2.03;;;41.30;58.30;;;;;;4945406;29;20038;-71
2023/06/19 15:07:28;;;;;;;5.97;2.42;;;40.40;59.40;;;;;;4945725;29;20024;-73
2023/06/19 15:09:54;;;;;;;3.33;2.00;;;39.60;60.20;;;;;;4945421;29;20044;-73
2023/06/19 15:12:20;;;;;;;2.72;2.17;;;39.50;60.90;;;;;;4945443;29;20033;-72
2023/06/19 15:14:45;;;;;;;3.33;2.00;;;40.10;60.40;;;;;;4945099;29;20050;-72
2023/06/19 15:17:11;;;;;;;3.10;1.80;;;41.80;58.60;;;;;;4944772;29;20024;-74
2023/06/19 15:19:37;;;;;;;3.80;2.10;;;43.40;57.90;;;;;;4945427;29;20276;-74
2023/06/19 15:22:02;;;;;;;3.08;2.17;;;44.00;56.50;;;;;;4944643;29;20106;-74
2023/06/19 15:24:28;;;;;;;8.13;2.22;;;44.40;55.70;;;;;;4945257;29;20038;-75
2023/06/19 15:26:55;;;;;;;3.42;1.80;;;45.50;55.50;;;;;;4944795;29;20373;-74
2023/06/19 15:29:21;;;;;;;3.72;2.55;;;46.20;54.90;;;;;;4945474;29;20035;-74
2023/06/19 15:31:46;;;;;;;3.30;2.20;;;45.50;54.50;;;;;;4940996;29;20056;-74
2023/06/19 15:34:12;;;;;;;2.65;2.10;;;45.00;55.10;;;;;;4926354;29;20034;-74
2023/06/19 15:36:38;;;;;;;3.85;1.90;;;45.20;54.90;;;;;;4927036;29;20032;-74
2023/06/19 15:39:03;;;;;;;2.80;1.70;;;44.90;54.80;;;;;;4925829;29;20032;-74
2023/06/19 15:41:29;;;;;;;4.15;1.83;;;44.00;55.50;;;;;;4926226;29;20036;-75
2023/06/19 15:43:55;;;;;;;2.47;1.90;;;43.80;54.80;;;;;;4926034;29;20028;-75
2023/06/19 15:46:21;;;;;;;3.45;1.90;;;44.10;56.10;;;;;;4926159;29;20032;-74
2023/06/19 15:48:46;;;;;;;2.08;1.63;;;43.20;56.30;;;;;;4924832;29;20032;-75
2023/06/19 15:51:12;;;;;;;2.53;2.00;;;42.30;57.50;;;;;;4926056;29;20040;-74
2023/06/19 15:53:41;;;;;;;3.08;1.95;;;41.30;58.50;;;;;;4926602;29;20103;-74
2023/06/19 15:56:07;;;;;;;2.55;2.13;;;40.40;60.10;;;;;;4924824;29;20092;-75
2023/06/19 15:58:33;;;;;;;3.45;2.22;;;39.50;60.40;;;;;;4926615;29;20040;-75
2023/06/19 16:00:59;;;;;;;3.53;2.13;;;39.30;60.50;;;;;;4925991;29;20020;-75
2023/06/19 16:03:25;;;;;;;3.15;2.20;;;39.00;61.00;;;;;;4939230;29;20063;-74
2023/06/19 16:05:52;;;;;;;3.17;2.27;;;38.60;61.20;;;;;;4947779;29;20309;-75
2023/06/19 16:08:23;;;;;;;3.33;2.28;;;37.90;62.30;;;;;;4949219;29;20136;-74
2023/06/19 16:10:49;;;;;;;3.65;2.00;;;37.10;63.70;;;;;;4948301;29;20077;-74
2023/06/19 16:13:14;;;;;;;3.70;2.25;;;36.80;64.10;;;;;;4948696;29;20083;-74
2023/06/19 16:15:41;;;;;;;5.45;2.30;;;36.20;64.80;;;;;;4948984;29;20035;-75
2023/06/19 16:18:07;;;;;;;4.28;2.20;;;35.70;65.10;;;;;;4946132;29;20198;-74
2023/06/19 16:20:32;;;;;;;3.67;2.00;;;35.40;66.10;;;;;;4931913;29;20039;-74
2023/06/19 16:22:58;;;;;;;2.88;2.20;;;35.30;66.10;;;;;;4929087;29;20020;-74
2023/06/19 16:25:24;;;;;;;2.45;2.10;;;35.40;66.10;;;;;;4929951;29;20032;-74
2023/06/19 16:27:50;;;;;;;2.88;2.20;;;35.50;65.70;;;;;;4928962;29;20043;-76
2023/06/19 16:30:16;;;;;;;3.40;2.00;;;35.60;65.80;;;;;;4929526;29;20230;-74
2023/06/19 16:32:42;;;;;;;4.03;2.40;;;35.60;65.00;;;;;;4929436;29;20096;-76
2023/06/19 16:35:08;;;;;;;3.17;1.98;;;35.50;66.00;;;;;;4932263;29;20179;-76
2023/06/19 16:37:34;;;;;;;4.70;2.58;;;35.50;65.40;;;;;;4928714;29;20297;-76
2023/06/19 16:39:59;;;;;;;4.85;2.63;;;35.30;66.60;;;;;;4928835;29;20234;-75
2023/06/19 16:42:25;;;;;;;8.38;3.00;;;35.60;67.20;;;;;;4929340;29;20032;-77
2023/06/19 16:44:52;;;;;;;4.95;2.50;;;35.80;66.90;;;;;;4929038;29;20055;-75
2023/06/19 16:47:18;;;;;;;4.87;2.60;;;36.30;66.30;;;;;;4929145;29;20040;-74
2023/06/19 16:49:44;;;;;;;4.97;2.83;;;36.90;64.40;;;;;;4928075;29;20020;-75
2023/06/19 16:52:10;;;;;;;3.80;2.92;;;36.80;65.70;;;;;;4929197;29;20078;-73
2023/06/19 16:54:36;;;;;;;3.55;2.60;;;36.60;65.70;;;;;;4930096;29;20031;-76
2023/06/19 16:57:01;;;;;;;4.30;2.85;;;36.00;66.10;;;;;;4928891;29;20213;-75
2023/06/19 16:59:27;;;;;;;4.07;2.95;;;35.80;66.50;;;;;;4929157;29;20032;-74
2023/06/19 17:01:53;;;;;;;4.55;2.80;;;35.30;67.30;;;;;;4931627;29;20055;-74
2023/06/19 17:04:19;;;;;;;4.80;2.78;;;34.70;68.20;;;;;;4948113;29;20094;-76
2023/06/19 17:06:45;;;;;;;5.35;3.10;;;34.20;68.20;;;;;;4942786;29;20074;-76
2023/06/19 17:09:10;;;;;;;4.82;2.92;;;33.50;70.00;;;;;;4947044;29;20317;-75
2023/06/19 17:11:37;;;;;;;3.88;2.80;;;33.10;71.40;;;;;;4948013;29;20314;-75
2023/06/19 17:14:03;;;;;;;4.13;3.15;;;32.80;70.50;;;;;;4947489;29;20042;-75
2023/06/19 17:16:29;;;;;;;4.95;3.35;;;32.60;71.80;;;;;;4949087;29;20041;-73
2023/06/19 17:18:55;;;;;;;5.32;3.50;;;32.00;72.80;;;;;;4946930;29;20059;-74
2023/06/19 17:21:21;;;;;;;6.22;3.42;;;31.70;73.90;;;;;;4943166;29;20039;-74
2023/06/19 17:23:47;;;;;;;6.85;3.22;;;31.60;74.40;;;;;;4928337;29;20062;-74
2023/06/19 17:26:13;;;;;;;4.72;3.13;;;31.40;74.80;;;;;;4928375;29;20035;-73
2023/06/19 17:28:38;;;;;;;4.50;3.33;;;31.20;75.40;;;;;;4928853;29;20055;-75
2023/06/19 17:31:07;;;;;;;5.10;3.10;;;31.10;75.00;;;;;;4928100;29;20044;-73
2023/06/19 17:33:33;;;;;;;5.80;3.50;;;31.00;75.50;;;;;;4927441;29;20191;-73
2023/06/19 17:35:59;;;;;;;5.45;3.35;;;31.00;75.50;;;;;;4927935;29;20038;-74
2023/06/19 17:38:25;;;;;;;6.35;3.53;;;31.20;75.80;;;;;;4931679;29;20024;-76
2023/06/19 17:40:51;;;;;;;3.85;3.03;;;31.10;74.90;;;;;;4927637;29;20097;-75
2023/06/19 17:43:17;;;;;;;4.60;2.78;;;31.00;74.40;;;;;;4928225;29;20036;-73
2023/06/19 17:45:43;;;;;;;5.75;3.05;;;30.90;76.10;;;;;;4928057;29;20099;-75
2023/06/19 17:48:09;;;;;;;4.15;3.20;;;31.30;75.70;;;;;;4927705;29;20035;-73